sensor_id;sensor_type;location;lat;lon;timestamp;temperature;humidity
34768;DHT22;21755;43.608;1.236;2022-08-11T00:02:34;26.50;99.90
34768;DHT22;21755;43.608;1.236;2022-08-11T00:05:08;26.50;99.90
34768;DHT22;21755;43.608;1.236;2022-08-11T00:07:47;26.40;99.90
34768;DHT22;21755;43.608;1.236;2022-08-11T00:10:19;26.40;99.90
34768;DHT22;21755;43.608;1.236;2022-08-11T00:12:55;26.40;99.90
34768;DHT22;21755;43.608;1.236;2022-08-11T00:15:23;26.20;99.90
34768;DHT22;21755;43.608;1.236;2022-08-11T00:17:56;26.20;99.90
34768;DHT22;21755;43.608;1.236;2022-08-11T00:20:29;26.20;99.90
34768;DHT22;21755;43.608;1.236;2022-08-11T00:23:02;26.30;99.90
34768;DHT22;21755;43.608;1.236;2022-08-11T00:25:46;26.30;99.90
34768;DHT22;21755;43.608;1.236;2022-08-11T00:28:32;26.30;99.90
34768;DHT22;21755;43.608;1.236;2022-08-11T00:31:05;26.20;99.90
34768;DHT22;21755;43.608;1.236;2022-08-11T00:33:36;26.20;99.90
34768;DHT22;21755;43.608;1.236;2022-08-11T00:36:04;26.20;99.90
34768;DHT22;21755;43.608;1.236;2022-08-11T00:38:33;26.10;99.90
34768;DHT22;21755;43.608;1.236;2022-08-11T00:41:19;26.10;99.90
34768;DHT22;21755;43.608;1.236;2022-08-11T00:47:06;26.00;99.90
34768;DHT22;21755;43.608;1.236;2022-08-11T00:55:51;25.80;99.90
34768;DHT22;21755;43.608;1.236;2022-08-11T01:18:48;25.60;99.90
34768;DHT22;21755;43.608;1.236;2022-08-11T01:27:09;25.40;99.90
34768;DHT22;21755;43.608;1.236;2022-08-11T01:38:34;25.40;99.90
34768;DHT22;21755;43.608;1.236;2022-08-11T01:50:13;25.70;99.90
34768;DHT22;21755;43.608;1.236;2022-08-11T01:53:03;25.50;99.90
34768;DHT22;21755;43.608;1.236;2022-08-11T02:04:48;25.40;99.90
34768;DHT22;21755;43.608;1.236;2022-08-11T02:12:55;25.30;99.90
34768;DHT22;21755;43.608;1.236;2022-08-11T02:15:27;25.30;99.90
34768;DHT22;21755;43.608;1.236;2022-08-11T02:20:53;25.40;99.90
34768;DHT22;21755;43.608;1.236;2022-08-11T02:26:22;25.50;99.90
34768;DHT22;21755;43.608;1.236;2022-08-11T02:34:43;25.30;99.90
34768;DHT22;21755;43.608;1.236;2022-08-11T02:37:13;25.30;99.90
34768;DHT22;21755;43.608;1.236;2022-08-11T02:45:15;25.30;99.90
34768;DHT22;21755;43.608;1.236;2022-08-11T02:48:11;25.30;99.90
34768;DHT22;21755;43.608;1.236;2022-08-11T02:51:34;25.30;99.90
34768;DHT22;21755;43.608;1.236;2022-08-11T02:54:21;25.20;99.90
34768;DHT22;21755;43.608;1.236;2022-08-11T03:00:05;25.40;99.90
34768;DHT22;21755;43.608;1.236;2022-08-11T03:05:44;25.20;99.90
34768;DHT22;21755;43.608;1.236;2022-08-11T03:11:10;25.40;99.90
34768;DHT22;21755;43.608;1.236;2022-08-11T03:25:00;25.30;99.90
34768;DHT22;21755;43.608;1.236;2022-08-11T03:27:38;25.20;99.90
34768;DHT22;21755;43.608;1.236;2022-08-11T03:37:24;25.30;99.90
34768;DHT22;21755;43.608;1.236;2022-08-11T03:42:51;25.10;99.90
34768;DHT22;21755;43.608;1.236;2022-08-11T03:45:32;25.10;99.90
34768;DHT22;21755;43.608;1.236;2022-08-11T03:48:24;25.30;99.90
34768;DHT22;21755;43.608;1.236;2022-08-11T03:51:12;25.20;99.90
34768;DHT22;21755;43.608;1.236;2022-08-11T03:53:58;25.20;99.90
34768;DHT22;21755;43.608;1.236;2022-08-11T04:02:14;25.10;99.90
34768;DHT22;21755;43.608;1.236;2022-08-11T04:16:40;24.80;99.90
34768;DHT22;21755;43.608;1.236;2022-08-11T04:22:15;25.00;99.90
34768;DHT22;21755;43.608;1.236;2022-08-11T04:24:57;25.30;99.90
34768;DHT22;21755;43.608;1.236;2022-08-11T04:30:50;25.20;99.90
34768;DHT22;21755;43.608;1.236;2022-08-11T04:33:46;25.00;99.90
34768;DHT22;21755;43.608;1.236;2022-08-11T04:40:11;25.30;99.90
34768;DHT22;21755;43.608;1.236;2022-08-11T04:55:14;25.10;99.90
34768;DHT22;21755;43.608;1.236;2022-08-11T05:13:34;24.90;99.90
34768;DHT22;21755;43.608;1.236;2022-08-11T05:16:29;25.20;99.90
34768;DHT22;21755;43.608;1.236;2022-08-11T05:19:20;25.50;99.90
34768;DHT22;21755;43.608;1.236;2022-08-11T05:22:07;25.30;99.90
34768;DHT22;21755;43.608;1.236;2022-08-11T05:28:02;25.30;99.90
34768;DHT22;21755;43.608;1.236;2022-08-11T05:30:49;25.10;99.90
34768;DHT22;21755;43.608;1.236;2022-08-11T05:33:51;24.90;99.90
34768;DHT22;21755;43.608;1.236;2022-08-11T05:39:18;25.30;99.90
34768;DHT22;21755;43.608;1.236;2022-08-11T05:42:05;25.40;99.90
34768;DHT22;21755;43.608;1.236;2022-08-11T05:44:51;25.20;99.90
34768;DHT22;21755;43.608;1.236;2022-08-11T05:47:37;25.10;99.90
34768;DHT22;21755;43.608;1.236;2022-08-11T05:50:23;25.20;99.90
34768;DHT22;21755;43.608;1.236;2022-08-11T05:53:12;25.30;99.90
34768;DHT22;21755;43.608;1.236;2022-08-11T05:56:02;25.40;99.90
34768;DHT22;21755;43.608;1.236;2022-08-11T05:58:43;25.50;99.90
34768;DHT22;21755;43.608;1.236;2022-08-11T06:01:11;25.30;99.90
34768;DHT22;21755;43.608;1.236;2022-08-11T06:03:39;25.30;99.90
34768;DHT22;21755;43.608;1.236;2022-08-11T06:06:26;25.20;99.90
34768;DHT22;21755;43.608;1.236;2022-08-11T06:08:57;25.20;99.90
34768;DHT22;21755;43.608;1.236;2022-08-11T06:11:24;25.30;99.90
34768;DHT22;21755;43.608;1.236;2022-08-11T06:13:51;25.20;99.90
34768;DHT22;21755;43.608;1.236;2022-08-11T06:16:23;25.00;99.90
34768;DHT22;21755;43.608;1.236;2022-08-11T06:18:50;25.10;99.90
34768;DHT22;21755;43.608;1.236;2022-08-11T06:21:17;25.10;99.90
34768;DHT22;21755;43.608;1.236;2022-08-11T06:23:44;25.10;99.90
34768;DHT22;21755;43.608;1.236;2022-08-11T06:26:12;25.10;99.90
34768;DHT22;21755;43.608;1.236;2022-08-11T06:28:45;25.10;99.90
34768;DHT22;21755;43.608;1.236;2022-08-11T06:31:14;25.10;99.90
34768;DHT22;21755;43.608;1.236;2022-08-11T06:36:53;25.10;99.90
34768;DHT22;21755;43.608;1.236;2022-08-11T06:39:31;25.20;99.90
34768;DHT22;21755;43.608;1.236;2022-08-11T06:42:08;25.30;99.90
34768;DHT22;21755;43.608;1.236;2022-08-11T06:45:08;25.40;99.90
34768;DHT22;21755;43.608;1.236;2022-08-11T06:47:43;25.40;99.90
34768;DHT22;21755;43.608;1.236;2022-08-11T06:50:13;25.60;99.90
34768;DHT22;21755;43.608;1.236;2022-08-11T06:52:59;25.70;99.90
34768;DHT22;21755;43.608;1.236;2022-08-11T06:55:28;25.80;99.90
34768;DHT22;21755;43.608;1.236;2022-08-11T06:58:19;25.90;99.90
34768;DHT22;21755;43.608;1.236;2022-08-11T07:01:11;26.10;99.90
34768;DHT22;21755;43.608;1.236;2022-08-11T07:03:48;26.20;99.90
34768;DHT22;21755;43.608;1.236;2022-08-11T07:06:32;26.30;99.90
34768;DHT22;21755;43.608;1.236;2022-08-11T07:12:42;26.50;99.90
34768;DHT22;21755;43.608;1.236;2022-08-11T07:15:33;26.70;99.90
34768;DHT22;21755;43.608;1.236;2022-08-11T07:18:07;26.70;99.90
34768;DHT22;21755;43.608;1.236;2022-08-11T07:21:07;26.80;99.90
34768;DHT22;21755;43.608;1.236;2022-08-11T07:23:54;26.80;99.90
34768;DHT22;21755;43.608;1.236;2022-08-11T07:26:42;26.90;99.90
34768;DHT22;21755;43.608;1.236;2022-08-11T07:29:30;27.10;99.90
34768;DHT22;21755;43.608;1.236;2022-08-11T07:31:57;27.20;99.90
34768;DHT22;21755;43.608;1.236;2022-08-11T07:34:31;27.40;99.90
34768;DHT22;21755;43.608;1.236;2022-08-11T07:37:03;27.50;99.90
34768;DHT22;21755;43.608;1.236;2022-08-11T07:39:35;27.50;99.90
34768;DHT22;21755;43.608;1.236;2022-08-11T07:42:12;27.60;99.90
34768;DHT22;21755;43.608;1.236;2022-08-11T07:44:40;27.80;99.90
34768;DHT22;21755;43.608;1.236;2022-08-11T07:47:26;27.90;99.90
34768;DHT22;21755;43.608;1.236;2022-08-11T07:50:12;28.00;99.90
34768;DHT22;21755;43.608;1.236;2022-08-11T07:52:58;28.10;99.90
34768;DHT22;21755;43.608;1.236;2022-08-11T07:55:25;28.20;99.90
34768;DHT22;21755;43.608;1.236;2022-08-11T07:57:57;28.30;99.90
34768;DHT22;21755;43.608;1.236;2022-08-11T08:00:48;28.40;99.90
34768;DHT22;21755;43.608;1.236;2022-08-11T08:03:33;28.50;99.90
34768;DHT22;21755;43.608;1.236;2022-08-11T08:06:18;28.60;99.90
34768;DHT22;21755;43.608;1.236;2022-08-11T08:09:04;28.70;99.90
34768;DHT22;21755;43.608;1.236;2022-08-11T08:11:50;28.90;99.90
34768;DHT22;21755;43.608;1.236;2022-08-11T08:14:35;28.90;99.90
34768;DHT22;21755;43.608;1.236;2022-08-11T08:17:21;28.90;99.90
34768;DHT22;21755;43.608;1.236;2022-08-11T08:20:11;29.10;99.90
34768;DHT22;21755;43.608;1.236;2022-08-11T08:22:38;29.30;99.90
34768;DHT22;21755;43.608;1.236;2022-08-11T08:25:05;29.50;99.90
34768;DHT22;21755;43.608;1.236;2022-08-11T08:27:36;29.70;99.90
34768;DHT22;21755;43.608;1.236;2022-08-11T08:30:08;29.80;99.90
34768;DHT22;21755;43.608;1.236;2022-08-11T08:32:53;29.70;99.90
34768;DHT22;21755;43.608;1.236;2022-08-11T08:35:22;29.80;99.90
34768;DHT22;21755;43.608;1.236;2022-08-11T08:37:49;29.80;99.90
34768;DHT22;21755;43.608;1.236;2022-08-11T08:40:17;30.00;99.90
34768;DHT22;21755;43.608;1.236;2022-08-11T08:42:54;30.20;99.90
34768;DHT22;21755;43.608;1.236;2022-08-11T08:45:21;30.20;99.90
34768;DHT22;21755;43.608;1.236;2022-08-11T08:47:58;30.30;99.90
34768;DHT22;21755;43.608;1.236;2022-08-11T08:50:30;30.40;99.90
34768;DHT22;21755;43.608;1.236;2022-08-11T08:53:19;30.40;99.90
34768;DHT22;21755;43.608;1.236;2022-08-11T08:55:47;30.60;99.90
34768;DHT22;21755;43.608;1.236;2022-08-11T08:58:15;30.60;99.90
34768;DHT22;21755;43.608;1.236;2022-08-11T09:00:45;30.60;99.90
34768;DHT22;21755;43.608;1.236;2022-08-11T09:03:12;30.80;99.90
34768;DHT22;21755;43.608;1.236;2022-08-11T09:05:39;30.90;99.90
34768;DHT22;21755;43.608;1.236;2022-08-11T09:08:06;31.00;99.90
34768;DHT22;21755;43.608;1.236;2022-08-11T09:10:32;31.10;99.90
34768;DHT22;21755;43.608;1.236;2022-08-11T09:13:00;31.10;99.90
34768;DHT22;21755;43.608;1.236;2022-08-11T09:15:28;31.30;99.90
34768;DHT22;21755;43.608;1.236;2022-08-11T09:17:58;31.40;99.90
34768;DHT22;21755;43.608;1.236;2022-08-11T09:20:36;31.30;99.90
34768;DHT22;21755;43.608;1.236;2022-08-11T09:23:07;31.40;99.90
34768;DHT22;21755;43.608;1.236;2022-08-11T09:25:55;31.40;99.90
34768;DHT22;21755;43.608;1.236;2022-08-11T09:28:44;31.60;99.90
34768;DHT22;21755;43.608;1.236;2022-08-11T09:31:11;31.80;99.90
34768;DHT22;21755;43.608;1.236;2022-08-11T09:33:39;31.90;99.90
34768;DHT22;21755;43.608;1.236;2022-08-11T09:36:06;32.10;99.90
34768;DHT22;21755;43.608;1.236;2022-08-11T09:38:52;32.20;99.90
34768;DHT22;21755;43.608;1.236;2022-08-11T09:41:38;32.10;99.90
34768;DHT22;21755;43.608;1.236;2022-08-11T09:44:06;32.10;99.90
34768;DHT22;21755;43.608;1.236;2022-08-11T09:46:54;32.10;99.90
34768;DHT22;21755;43.608;1.236;2022-08-11T09:49:20;32.20;99.90
34768;DHT22;21755;43.608;1.236;2022-08-11T09:51:48;32.30;99.80
34768;DHT22;21755;43.608;1.236;2022-08-11T09:54:15;32.50;99.50
34768;DHT22;21755;43.608;1.236;2022-08-11T09:56:41;32.70;98.60
34768;DHT22;21755;43.608;1.236;2022-08-11T09:59:26;32.90;97.80
34768;DHT22;21755;43.608;1.236;2022-08-11T10:02:01;32.80;97.80
34768;DHT22;21755;43.608;1.236;2022-08-11T10:07:05;33.20;97.70
34768;DHT22;21755;43.608;1.236;2022-08-11T10:10:02;33.20;97.40
34768;DHT22;21755;43.608;1.236;2022-08-11T10:12:35;33.40;97.30
34768;DHT22;21755;43.608;1.236;2022-08-11T10:15:06;33.70;96.60
34768;DHT22;21755;43.608;1.236;2022-08-11T10:17:58;33.60;95.90
34768;DHT22;21755;43.608;1.236;2022-08-11T10:20:46;33.60;94.90
34768;DHT22;21755;43.608;1.236;2022-08-11T10:23:15;33.70;95.40
34768;DHT22;21755;43.608;1.236;2022-08-11T10:26:01;33.80;95.60
34768;DHT22;21755;43.608;1.236;2022-08-11T10:28:46;34.00;95.00
34768;DHT22;21755;43.608;1.236;2022-08-11T10:31:13;34.20;94.70
34768;DHT22;21755;43.608;1.236;2022-08-11T10:33:57;34.30;93.70
34768;DHT22;21755;43.608;1.236;2022-08-11T10:36:41;34.20;94.50
34768;DHT22;21755;43.608;1.236;2022-08-11T10:39:18;34.20;94.60
34768;DHT22;21755;43.608;1.236;2022-08-11T10:41:45;34.30;94.20
34768;DHT22;21755;43.608;1.236;2022-08-11T10:44:42;34.30;94.40
34768;DHT22;21755;43.608;1.236;2022-08-11T10:47:11;34.40;94.00
34768;DHT22;21755;43.608;1.236;2022-08-11T10:49:56;34.50;93.60
34768;DHT22;21755;43.608;1.236;2022-08-11T10:52:42;34.50;93.40
34768;DHT22;21755;43.608;1.236;2022-08-11T10:55:27;34.80;94.00
34768;DHT22;21755;43.608;1.236;2022-08-11T10:58:12;34.90;93.70
34768;DHT22;21755;43.608;1.236;2022-08-11T11:00:58;34.90;93.90
34768;DHT22;21755;43.608;1.236;2022-08-11T11:03:26;34.80;93.50
34768;DHT22;21755;43.608;1.236;2022-08-11T11:06:06;35.00;93.00
34768;DHT22;21755;43.608;1.236;2022-08-11T11:08:37;35.20;93.30
34768;DHT22;21755;43.608;1.236;2022-08-11T11:11:20;35.30;92.60
34768;DHT22;21755;43.608;1.236;2022-08-11T11:13:51;35.30;92.40
34768;DHT22;21755;43.608;1.236;2022-08-11T11:16:37;35.30;92.00
34768;DHT22;21755;43.608;1.236;2022-08-11T11:19:24;35.50;91.80
34768;DHT22;21755;43.608;1.236;2022-08-11T11:21:53;35.60;91.40
34768;DHT22;21755;43.608;1.236;2022-08-11T11:27:37;35.60;91.90
34768;DHT22;21755;43.608;1.236;2022-08-11T11:30:10;35.70;91.00
34768;DHT22;21755;43.608;1.236;2022-08-11T11:32:47;35.80;90.90
34768;DHT22;21755;43.608;1.236;2022-08-11T11:37:55;36.30;90.60
34768;DHT22;21755;43.608;1.236;2022-08-11T11:40:22;36.40;90.30
34768;DHT22;21755;43.608;1.236;2022-08-11T11:42:51;36.30;90.30
34768;DHT22;21755;43.608;1.236;2022-08-11T11:45:20;36.30;89.40
34768;DHT22;21755;43.608;1.236;2022-08-11T11:47:47;36.10;88.60
34768;DHT22;21755;43.608;1.236;2022-08-11T11:50:28;36.30;88.60
34768;DHT22;21755;43.608;1.236;2022-08-11T11:52:56;36.30;88.30
34768;DHT22;21755;43.608;1.236;2022-08-11T11:55:24;36.30;88.70
34768;DHT22;21755;43.608;1.236;2022-08-11T11:57:54;36.10;88.70
34768;DHT22;21755;43.608;1.236;2022-08-11T12:00:40;36.30;88.60
34768;DHT22;21755;43.608;1.236;2022-08-11T12:03:26;36.50;87.50
34768;DHT22;21755;43.608;1.236;2022-08-11T12:05:53;36.60;87.30
34768;DHT22;21755;43.608;1.236;2022-08-11T12:08:20;36.70;85.60
34768;DHT22;21755;43.608;1.236;2022-08-11T12:10:53;36.60;84.90
34768;DHT22;21755;43.608;1.236;2022-08-11T12:13:41;36.50;84.40
34768;DHT22;21755;43.608;1.236;2022-08-11T12:16:09;36.60;85.60
34768;DHT22;21755;43.608;1.236;2022-08-11T12:18:36;36.70;85.80
34768;DHT22;21755;43.608;1.236;2022-08-11T12:21:04;36.60;85.60
34768;DHT22;21755;43.608;1.236;2022-08-11T12:23:34;36.30;86.30
34768;DHT22;21755;43.608;1.236;2022-08-11T12:26:19;36.50;87.00
34768;DHT22;21755;43.608;1.236;2022-08-11T12:29:05;36.60;86.70
34768;DHT22;21755;43.608;1.236;2022-08-11T12:31:33;37.00;85.40
34768;DHT22;21755;43.608;1.236;2022-08-11T12:34:02;36.90;86.40
34768;DHT22;21755;43.608;1.236;2022-08-11T12:36:33;36.90;86.50
34768;DHT22;21755;43.608;1.236;2022-08-11T12:39:02;36.90;87.10
34768;DHT22;21755;43.608;1.236;2022-08-11T12:41:30;37.10;85.80
34768;DHT22;21755;43.608;1.236;2022-08-11T12:44:16;37.30;85.00
34768;DHT22;21755;43.608;1.236;2022-08-11T12:47:01;37.40;84.80
34768;DHT22;21755;43.608;1.236;2022-08-11T12:49:30;37.30;84.80
34768;DHT22;21755;43.608;1.236;2022-08-11T12:52:31;37.30;84.40
34768;DHT22;21755;43.608;1.236;2022-08-11T12:55:07;37.40;83.50
34768;DHT22;21755;43.608;1.236;2022-08-11T12:57:46;37.50;84.00
34768;DHT22;21755;43.608;1.236;2022-08-11T13:00:31;37.40;82.80
34768;DHT22;21755;43.608;1.236;2022-08-11T13:03:18;37.20;82.30
34768;DHT22;21755;43.608;1.236;2022-08-11T13:06:04;37.20;83.20
34768;DHT22;21755;43.608;1.236;2022-08-11T13:08:34;37.30;83.70
34768;DHT22;21755;43.608;1.236;2022-08-11T13:11:00;37.40;84.50
34768;DHT22;21755;43.608;1.236;2022-08-11T13:13:47;37.50;84.70
34768;DHT22;21755;43.608;1.236;2022-08-11T13:16:15;37.60;84.30
34768;DHT22;21755;43.608;1.236;2022-08-11T13:18:42;37.50;84.00
34768;DHT22;21755;43.608;1.236;2022-08-11T13:21:12;37.70;83.70
34768;DHT22;21755;43.608;1.236;2022-08-11T13:23:39;37.50;82.10
34768;DHT22;21755;43.608;1.236;2022-08-11T13:26:06;37.40;81.10
34768;DHT22;21755;43.608;1.236;2022-08-11T13:28:37;37.50;81.40
34768;DHT22;21755;43.608;1.236;2022-08-11T13:31:04;37.70;82.00
34768;DHT22;21755;43.608;1.236;2022-08-11T13:33:54;37.70;81.90
34768;DHT22;21755;43.608;1.236;2022-08-11T13:36:22;37.80;81.40
34768;DHT22;21755;43.608;1.236;2022-08-11T13:38:53;37.80;81.20
34768;DHT22;21755;43.608;1.236;2022-08-11T13:41:20;37.70;81.30
34768;DHT22;21755;43.608;1.236;2022-08-11T13:44:09;37.70;80.40
34768;DHT22;21755;43.608;1.236;2022-08-11T13:46:39;37.60;78.30
34768;DHT22;21755;43.608;1.236;2022-08-11T13:49:08;37.80;79.50
34768;DHT22;21755;43.608;1.236;2022-08-11T13:51:36;37.80;79.90
34768;DHT22;21755;43.608;1.236;2022-08-11T13:56:32;37.80;78.50
34768;DHT22;21755;43.608;1.236;2022-08-11T13:59:00;37.90;77.00
34768;DHT22;21755;43.608;1.236;2022-08-11T14:01:32;37.90;76.40
34768;DHT22;21755;43.608;1.236;2022-08-11T14:04:02;37.90;75.90
34768;DHT22;21755;43.608;1.236;2022-08-11T14:06:30;37.80;74.90
34768;DHT22;21755;43.608;1.236;2022-08-11T14:08:57;38.00;74.60
34768;DHT22;21755;43.608;1.236;2022-08-11T14:11:25;37.90;76.40
34768;DHT22;21755;43.608;1.236;2022-08-11T14:14:26;37.80;74.60
34768;DHT22;21755;43.608;1.236;2022-08-11T14:17:02;37.90;73.50
34768;DHT22;21755;43.608;1.236;2022-08-11T14:19:30;37.80;72.00
34768;DHT22;21755;43.608;1.236;2022-08-11T14:22:00;38.00;75.00
34768;DHT22;21755;43.608;1.236;2022-08-11T14:24:39;38.10;75.70
34768;DHT22;21755;43.608;1.236;2022-08-11T14:27:08;38.30;75.10
34768;DHT22;21755;43.608;1.236;2022-08-11T14:29:36;38.30;74.10
34768;DHT22;21755;43.608;1.236;2022-08-11T14:32:06;38.40;74.50
34768;DHT22;21755;43.608;1.236;2022-08-11T14:34:33;38.50;73.70
34768;DHT22;21755;43.608;1.236;2022-08-11T14:37:07;38.60;73.50
34768;DHT22;21755;43.608;1.236;2022-08-11T14:39:43;38.60;72.90
34768;DHT22;21755;43.608;1.236;2022-08-11T14:42:14;38.50;74.00
34768;DHT22;21755;43.608;1.236;2022-08-11T14:45:07;38.20;72.70
34768;DHT22;21755;43.608;1.236;2022-08-11T14:47:55;38.00;73.00
34768;DHT22;21755;43.608;1.236;2022-08-11T14:50:24;37.90;73.10
34768;DHT22;21755;43.608;1.236;2022-08-11T14:52:59;37.80;73.20
34768;DHT22;21755;43.608;1.236;2022-08-11T14:55:30;37.80;73.80
34768;DHT22;21755;43.608;1.236;2022-08-11T14:58:17;37.90;72.50
34768;DHT22;21755;43.608;1.236;2022-08-11T15:00:44;38.00;72.80
34768;DHT22;21755;43.608;1.236;2022-08-11T15:03:11;38.10;71.70
34768;DHT22;21755;43.608;1.236;2022-08-11T15:05:47;37.80;70.30
34768;DHT22;21755;43.608;1.236;2022-08-11T15:08:14;37.70;70.20
34768;DHT22;21755;43.608;1.236;2022-08-11T15:10:41;37.50;71.20
34768;DHT22;21755;43.608;1.236;2022-08-11T15:13:07;37.50;72.70
34768;DHT22;21755;43.608;1.236;2022-08-11T15:15:35;37.70;72.20
34768;DHT22;21755;43.608;1.236;2022-08-11T15:18:22;37.80;72.70
34768;DHT22;21755;43.608;1.236;2022-08-11T15:20:49;38.00;72.90
34768;DHT22;21755;43.608;1.236;2022-08-11T15:23:34;38.00;72.40
34768;DHT22;21755;43.608;1.236;2022-08-11T15:26:31;38.00;72.10
34768;DHT22;21755;43.608;1.236;2022-08-11T15:29:24;38.00;71.20
34768;DHT22;21755;43.608;1.236;2022-08-11T15:32:09;37.90;70.80
34768;DHT22;21755;43.608;1.236;2022-08-11T15:34:59;37.90;70.40
34768;DHT22;21755;43.608;1.236;2022-08-11T15:37:45;37.90;70.10
34768;DHT22;21755;43.608;1.236;2022-08-11T15:40:17;38.00;69.80
34768;DHT22;21755;43.608;1.236;2022-08-11T15:46:02;37.90;69.60
34768;DHT22;21755;43.608;1.236;2022-08-11T15:48:43;37.60;70.70
34768;DHT22;21755;43.608;1.236;2022-08-11T15:51:20;37.60;70.20
34768;DHT22;21755;43.608;1.236;2022-08-11T15:53:56;37.70;71.30
34768;DHT22;21755;43.608;1.236;2022-08-11T15:56:27;37.80;71.50
34768;DHT22;21755;43.608;1.236;2022-08-11T15:58:56;37.80;70.50
34768;DHT22;21755;43.608;1.236;2022-08-11T16:01:43;37.70;71.00
34768;DHT22;21755;43.608;1.236;2022-08-11T16:04:30;37.60;71.10
34768;DHT22;21755;43.608;1.236;2022-08-11T16:07:07;37.40;70.40
34768;DHT22;21755;43.608;1.236;2022-08-11T16:09:47;37.50;71.30
34768;DHT22;21755;43.608;1.236;2022-08-11T16:12:17;37.50;70.50
34768;DHT22;21755;43.608;1.236;2022-08-11T16:14:50;37.50;70.50
34768;DHT22;21755;43.608;1.236;2022-08-11T16:17:46;37.40;70.20
34768;DHT22;21755;43.608;1.236;2022-08-11T16:20:16;37.30;70.00
34768;DHT22;21755;43.608;1.236;2022-08-11T16:22:45;36.90;70.20
34768;DHT22;21755;43.608;1.236;2022-08-11T16:25:23;36.70;71.00
34768;DHT22;21755;43.608;1.236;2022-08-11T16:27:58;36.70;71.30
34768;DHT22;21755;43.608;1.236;2022-08-11T16:30:31;36.80;71.40
34768;DHT22;21755;43.608;1.236;2022-08-11T16:32:57;36.90;71.70
34768;DHT22;21755;43.608;1.236;2022-08-11T16:35:24;37.00;71.10
34768;DHT22;21755;43.608;1.236;2022-08-11T16:38:10;37.00;70.30
34768;DHT22;21755;43.608;1.236;2022-08-11T16:40:58;37.10;70.10
34768;DHT22;21755;43.608;1.236;2022-08-11T16:43:29;37.10;70.00
34768;DHT22;21755;43.608;1.236;2022-08-11T16:46:18;37.00;70.00
34768;DHT22;21755;43.608;1.236;2022-08-11T16:48:46;36.90;70.50
34768;DHT22;21755;43.608;1.236;2022-08-11T16:51:13;37.00;71.00
34768;DHT22;21755;43.608;1.236;2022-08-11T16:53:41;36.90;71.80
34768;DHT22;21755;43.608;1.236;2022-08-11T16:56:11;36.60;71.10
34768;DHT22;21755;43.608;1.236;2022-08-11T16:58:40;36.60;71.20
34768;DHT22;21755;43.608;1.236;2022-08-11T17:01:26;36.70;70.90
34768;DHT22;21755;43.608;1.236;2022-08-11T17:04:01;36.70;71.10
34768;DHT22;21755;43.608;1.236;2022-08-11T17:06:47;36.80;71.20
34768;DHT22;21755;43.608;1.236;2022-08-11T17:09:34;36.70;70.90
34768;DHT22;21755;43.608;1.236;2022-08-11T17:12:21;36.70;71.70
34768;DHT22;21755;43.608;1.236;2022-08-11T17:15:11;36.60;70.70
34768;DHT22;21755;43.608;1.236;2022-08-11T17:17:58;36.50;71.00
34768;DHT22;21755;43.608;1.236;2022-08-11T17:20:27;36.50;71.90
34768;DHT22;21755;43.608;1.236;2022-08-11T17:22:54;36.50;72.20
34768;DHT22;21755;43.608;1.236;2022-08-11T17:25:39;36.30;72.30
34768;DHT22;21755;43.608;1.236;2022-08-11T17:28:05;36.40;72.90
34768;DHT22;21755;43.608;1.236;2022-08-11T17:30:32;36.50;72.90
34768;DHT22;21755;43.608;1.236;2022-08-11T17:33:17;36.40;72.50
34768;DHT22;21755;43.608;1.236;2022-08-11T17:36:03;36.30;72.60
34768;DHT22;21755;43.608;1.236;2022-08-11T17:38:30;36.10;72.70
34768;DHT22;21755;43.608;1.236;2022-08-11T17:41:00;36.10;72.80
34768;DHT22;21755;43.608;1.236;2022-08-11T17:43:47;36.00;72.80
34768;DHT22;21755;43.608;1.236;2022-08-11T17:46:33;35.90;73.50
34768;DHT22;21755;43.608;1.236;2022-08-11T17:49:19;35.80;73.30
34768;DHT22;21755;43.608;1.236;2022-08-11T17:51:47;35.70;72.90
34768;DHT22;21755;43.608;1.236;2022-08-11T17:54:34;35.60;73.40
34768;DHT22;21755;43.608;1.236;2022-08-11T17:57:21;35.60;73.90
34768;DHT22;21755;43.608;1.236;2022-08-11T18:00:07;35.50;74.50
34768;DHT22;21755;43.608;1.236;2022-08-11T18:02:36;35.30;74.80
34768;DHT22;21755;43.608;1.236;2022-08-11T18:05:24;35.20;74.80
34768;DHT22;21755;43.608;1.236;2022-08-11T18:07:58;35.20;75.20
34768;DHT22;21755;43.608;1.236;2022-08-11T18:10:44;35.10;75.30
34768;DHT22;21755;43.608;1.236;2022-08-11T18:13:30;35.00;76.00
34768;DHT22;21755;43.608;1.236;2022-08-11T18:16:17;35.00;76.20
34768;DHT22;21755;43.608;1.236;2022-08-11T18:19:02;34.80;76.70
34768;DHT22;21755;43.608;1.236;2022-08-11T18:21:48;34.80;77.00
34768;DHT22;21755;43.608;1.236;2022-08-11T18:24:39;34.70;78.20
34768;DHT22;21755;43.608;1.236;2022-08-11T18:27:30;34.70;79.10
34768;DHT22;21755;43.608;1.236;2022-08-11T18:30:16;34.60;80.00
34768;DHT22;21755;43.608;1.236;2022-08-11T18:33:02;34.50;81.10
34768;DHT22;21755;43.608;1.236;2022-08-11T18:35:51;34.40;82.20
34768;DHT22;21755;43.608;1.236;2022-08-11T18:38:38;34.20;84.00
34768;DHT22;21755;43.608;1.236;2022-08-11T18:41:25;34.10;85.60
34768;DHT22;21755;43.608;1.236;2022-08-11T18:44:12;33.80;86.70
34768;DHT22;21755;43.608;1.236;2022-08-11T18:47:04;33.80;86.90
34768;DHT22;21755;43.608;1.236;2022-08-11T18:49:52;33.70;87.80
34768;DHT22;21755;43.608;1.236;2022-08-11T18:52:40;33.60;88.00
34768;DHT22;21755;43.608;1.236;2022-08-11T18:55:26;33.50;89.00
34768;DHT22;21755;43.608;1.236;2022-08-11T18:58:14;33.30;89.50
34768;DHT22;21755;43.608;1.236;2022-08-11T19:01:01;33.30;90.00
34768;DHT22;21755;43.608;1.236;2022-08-11T19:03:47;33.10;90.20
34768;DHT22;21755;43.608;1.236;2022-08-11T19:06:33;33.10;90.20
34768;DHT22;21755;43.608;1.236;2022-08-11T19:09:20;33.00;90.50
34768;DHT22;21755;43.608;1.236;2022-08-11T19:12:06;32.90;90.70
34768;DHT22;21755;43.608;1.236;2022-08-11T19:14:52;32.80;90.90
34768;DHT22;21755;43.608;1.236;2022-08-11T19:17:41;32.80;91.10
34768;DHT22;21755;43.608;1.236;2022-08-11T19:20:29;32.70;91.40
34768;DHT22;21755;43.608;1.236;2022-08-11T19:23:17;32.70;91.60
34768;DHT22;21755;43.608;1.236;2022-08-11T19:26:05;32.60;91.60
34768;DHT22;21755;43.608;1.236;2022-08-11T19:28:51;32.50;92.00
34768;DHT22;21755;43.608;1.236;2022-08-11T19:31:37;32.50;92.20
34768;DHT22;21755;43.608;1.236;2022-08-11T19:34:23;32.50;92.40
34768;DHT22;21755;43.608;1.236;2022-08-11T19:37:09;32.30;92.60
34768;DHT22;21755;43.608;1.236;2022-08-11T19:40:00;32.20;93.00
34768;DHT22;21755;43.608;1.236;2022-08-11T19:42:46;32.10;93.60
34768;DHT22;21755;43.608;1.236;2022-08-11T19:45:31;32.10;93.80
34768;DHT22;21755;43.608;1.236;2022-08-11T19:48:18;32.00;94.00
34768;DHT22;21755;43.608;1.236;2022-08-11T19:51:03;32.00;94.30
34768;DHT22;21755;43.608;1.236;2022-08-11T19:53:48;31.90;94.70
34768;DHT22;21755;43.608;1.236;2022-08-11T19:56:33;31.90;94.70